sensor_id;sensor_type;location;lat;lon;timestamp;pressure;altitude;pressure_sealevel;temperature;humidity
33286;BME280;19656;50.096;20.014;2022-12-18T00:04:44;100455.21;;;-1.06;63.23
33286;BME280;19656;50.096;20.014;2022-12-18T00:09:49;100465.84;;;-1.05;63.12
33286;BME280;19656;50.096;20.014;2022-12-18T00:14:56;100468.47;;;-1.01;63.15
33286;BME280;19656;50.096;20.014;2022-12-18T00:20:01;100477.66;;;-1.07;63.20
33286;BME280;19656;50.096;20.014;2022-12-18T00:25:07;100482.85;;;-1.11;63.24
33286;BME280;19656;50.096;20.014;2022-12-18T00:30:14;100496.22;;;-1.16;63.65
33286;BME280;19656;50.096;20.014;2022-12-18T00:35:38;100502.27;;;-1.18;63.51
33286;BME280;19656;50.096;20.014;2022-12-18T00:40:48;100501.09;;;-1.15;63.59
33286;BME280;19656;50.096;20.014;2022-12-18T00:46:07;100509.65;;;-1.13;63.18
33286;BME280;19656;50.096;20.014;2022-12-18T00:51:11;100518.27;;;-1.02;63.41
33286;BME280;19656;50.096;20.014;2022-12-18T00:56:15;100524.63;;;-0.93;62.47
33286;BME280;19656;50.096;20.014;2022-12-18T01:01:20;100534.58;;;-0.89;61.83
33286;BME280;19656;50.096;20.014;2022-12-18T01:06:28;100535.98;;;-0.88;61.16
33286;BME280;19656;50.096;20.014;2022-12-18T01:11:32;100542.79;;;-0.87;60.75
33286;BME280;19656;50.096;20.014;2022-12-18T01:16:46;100555.95;;;-0.96;60.88
33286;BME280;19656;50.096;20.014;2022-12-18T01:21:54;100562.70;;;-1.00;61.24
33286;BME280;19656;50.096;20.014;2022-12-18T01:27:20;100567.90;;;-1.02;61.03
33286;BME280;19656;50.096;20.014;2022-12-18T01:32:32;100566.78;;;-1.10;61.38
33286;BME280;19656;50.096;20.014;2022-12-18T01:48:34;100575.16;;;-1.09;61.02
33286;BME280;19656;50.096;20.014;2022-12-18T01:53:42;100579.64;;;-1.13;60.90
33286;BME280;19656;50.096;20.014;2022-12-18T01:59:02;100585.23;;;-1.13;60.85
33286;BME280;19656;50.096;20.014;2022-12-18T02:10:03;100599.33;;;-1.13;60.77
33286;BME280;19656;50.096;20.014;2022-12-18T02:26:43;100621.95;;;-1.15;60.52
33286;BME280;19656;50.096;20.014;2022-12-18T02:32:22;100631.75;;;-1.10;60.80
33286;BME280;19656;50.096;20.014;2022-12-18T02:37:46;100635.96;;;-1.07;60.88
33286;BME280;19656;50.096;20.014;2022-12-18T02:43:14;100639.43;;;-1.07;60.63
33286;BME280;19656;50.096;20.014;2022-12-18T02:48:23;100648.13;;;-1.09;60.58
33286;BME280;19656;50.096;20.014;2022-12-18T02:53:53;100653.92;;;-1.05;60.52
33286;BME280;19656;50.096;20.014;2022-12-18T02:59:17;100653.41;;;-1.04;60.58
33286;BME280;19656;50.096;20.014;2022-12-18T03:04:43;100662.65;;;-1.02;60.79
33286;BME280;19656;50.096;20.014;2022-12-18T03:09:56;100669.61;;;-1.04;60.91
33286;BME280;19656;50.096;20.014;2022-12-18T03:15:24;100667.35;;;-1.04;60.84
33286;BME280;19656;50.096;20.014;2022-12-18T03:20:53;100675.02;;;-1.04;61.10
33286;BME280;19656;50.096;20.014;2022-12-18T03:26:10;100675.37;;;-1.03;61.45
33286;BME280;19656;50.096;20.014;2022-12-18T03:31:18;100680.50;;;-0.96;61.69
33286;BME280;19656;50.096;20.014;2022-12-18T03:36:27;100690.63;;;-0.92;61.64
33286;BME280;19656;50.096;20.014;2022-12-18T03:41:57;100696.19;;;-0.94;61.71
33286;BME280;19656;50.096;20.014;2022-12-18T03:53:17;100711.27;;;-0.87;61.56
33286;BME280;19656;50.096;20.014;2022-12-18T03:58:50;100712.75;;;-0.94;61.62
33286;BME280;19656;50.096;20.014;2022-12-18T04:04:06;100714.64;;;-0.96;61.93
33286;BME280;19656;50.096;20.014;2022-12-18T04:09:31;100719.18;;;-0.95;61.85
33286;BME280;19656;50.096;20.014;2022-12-18T04:14:58;100726.63;;;-0.98;61.93
33286;BME280;19656;50.096;20.014;2022-12-18T04:20:11;100728.70;;;-1.00;62.08
33286;BME280;19656;50.096;20.014;2022-12-18T04:25:19;100731.95;;;-1.05;62.17
33286;BME280;19656;50.096;20.014;2022-12-18T04:30:47;100729.62;;;-1.09;62.31
33286;BME280;19656;50.096;20.014;2022-12-18T04:35:56;100743.77;;;-1.06;62.40
33286;BME280;19656;50.096;20.014;2022-12-18T04:41:51;100755.43;;;-1.08;62.45
33286;BME280;19656;50.096;20.014;2022-12-18T04:47:09;100767.45;;;-1.07;62.67
33286;BME280;19656;50.096;20.014;2022-12-18T04:52:17;100773.27;;;-1.03;62.39
33286;BME280;19656;50.096;20.014;2022-12-18T04:57:53;100773.94;;;-1.03;62.32
33286;BME280;19656;50.096;20.014;2022-12-18T05:03:04;100782.83;;;-1.03;62.21
33286;BME280;19656;50.096;20.014;2022-12-18T05:08:11;100790.09;;;-1.08;62.36
33286;BME280;19656;50.096;20.014;2022-12-18T05:13:39;100791.80;;;-1.09;62.47
33286;BME280;19656;50.096;20.014;2022-12-18T05:18:48;100798.16;;;-1.16;62.50
33286;BME280;19656;50.096;20.014;2022-12-18T05:23:57;100808.92;;;-1.18;62.75
33286;BME280;19656;50.096;20.014;2022-12-18T05:29:02;100809.55;;;-1.11;64.11
33286;BME280;19656;50.096;20.014;2022-12-18T05:34:14;100805.71;;;-0.98;64.38
33286;BME280;19656;50.096;20.014;2022-12-18T05:39:20;100808.59;;;-0.90;63.14
33286;BME280;19656;50.096;20.014;2022-12-18T05:44:26;100811.61;;;-0.99;62.66
33286;BME280;19656;50.096;20.014;2022-12-18T05:49:30;100817.73;;;-1.11;62.55
33286;BME280;19656;50.096;20.014;2022-12-18T05:54:44;100825.83;;;-1.17;62.79
33286;BME280;19656;50.096;20.014;2022-12-18T05:59:51;100838.66;;;-1.21;62.80
33286;BME280;19656;50.096;20.014;2022-12-18T06:04:56;100842.11;;;-1.23;62.91
33286;BME280;19656;50.096;20.014;2022-12-18T06:10:18;100844.82;;;-1.28;62.94
33286;BME280;19656;50.096;20.014;2022-12-18T06:15:24;100855.13;;;-1.27;63.10
33286;BME280;19656;50.096;20.014;2022-12-18T06:20:30;100868.88;;;-1.15;64.93
33286;BME280;19656;50.096;20.014;2022-12-18T06:25:39;100868.14;;;-0.94;64.34
33286;BME280;19656;50.096;20.014;2022-12-18T06:30:47;100867.17;;;-0.88;62.98
33286;BME280;19656;50.096;20.014;2022-12-18T06:36:08;100870.43;;;-0.80;62.30
33286;BME280;19656;50.096;20.014;2022-12-18T06:41:21;100875.39;;;-0.86;62.25
33286;BME280;19656;50.096;20.014;2022-12-18T06:46:26;100885.23;;;-0.81;63.37
33286;BME280;19656;50.096;20.014;2022-12-18T06:51:37;100894.83;;;-0.91;62.20
33286;BME280;19656;50.096;20.014;2022-12-18T06:56:41;100899.44;;;-0.98;62.29
33286;BME280;19656;50.096;20.014;2022-12-18T07:01:46;100912.55;;;-1.06;62.36
33286;BME280;19656;50.096;20.014;2022-12-18T07:07:18;100921.10;;;-1.05;63.71
33286;BME280;19656;50.096;20.014;2022-12-18T07:23:02;100940.43;;;-1.05;62.52
33286;BME280;19656;50.096;20.014;2022-12-18T07:28:19;100945.10;;;-1.08;62.42
33286;BME280;19656;50.096;20.014;2022-12-18T07:33:24;100952.04;;;-1.09;62.49
33286;BME280;19656;50.096;20.014;2022-12-18T07:38:52;100966.16;;;-1.07;62.55
33286;BME280;19656;50.096;20.014;2022-12-18T07:44:04;100975.25;;;-1.06;62.43
33286;BME280;19656;50.096;20.014;2022-12-18T07:49:14;100981.70;;;-1.06;62.46
33286;BME280;19656;50.096;20.014;2022-12-18T07:54:26;100979.52;;;-1.01;62.46
33286;BME280;19656;50.096;20.014;2022-12-18T08:00:11;100985.63;;;-0.99;62.38
33286;BME280;19656;50.096;20.014;2022-12-18T08:05:28;100990.85;;;-1.00;62.44
33286;BME280;19656;50.096;20.014;2022-12-18T08:10:47;100989.32;;;-0.97;62.45
33286;BME280;19656;50.096;20.014;2022-12-18T08:16:06;100995.69;;;-0.91;62.35
33286;BME280;19656;50.096;20.014;2022-12-18T08:21:22;101000.61;;;-0.89;62.25
33286;BME280;19656;50.096;20.014;2022-12-18T08:26:31;101004.59;;;-0.91;62.04
33286;BME280;19656;50.096;20.014;2022-12-18T08:32:16;101010.21;;;-0.88;62.25
33286;BME280;19656;50.096;20.014;2022-12-18T08:37:24;101014.95;;;-0.86;61.96
33286;BME280;19656;50.096;20.014;2022-12-18T08:42:37;101014.81;;;-0.83;61.99
33286;BME280;19656;50.096;20.014;2022-12-18T08:48:30;101016.86;;;-0.87;61.87
33286;BME280;19656;50.096;20.014;2022-12-18T08:53:48;101024.96;;;-0.81;62.20
33286;BME280;19656;50.096;20.014;2022-12-18T08:58:56;101027.83;;;-0.76;62.07
33286;BME280;19656;50.096;20.014;2022-12-18T09:04:04;101030.36;;;-0.70;61.95
33286;BME280;19656;50.096;20.014;2022-12-18T09:09:10;101035.02;;;-0.63;61.59
33286;BME280;19656;50.096;20.014;2022-12-18T09:14:23;101039.27;;;-0.45;64.60
33286;BME280;19656;50.096;20.014;2022-12-18T09:19:27;101039.44;;;-0.10;62.44
33286;BME280;19656;50.096;20.014;2022-12-18T09:24:31;101042.14;;;-0.17;61.06
33286;BME280;19656;50.096;20.014;2022-12-18T09:29:35;101043.52;;;-0.18;60.71
33286;BME280;19656;50.096;20.014;2022-12-18T09:34:39;101043.69;;;-0.18;60.18
33286;BME280;19656;50.096;20.014;2022-12-18T09:39:43;101043.76;;;-0.26;60.19
33286;BME280;19656;50.096;20.014;2022-12-18T09:44:56;101043.27;;;-0.23;60.33
33286;BME280;19656;50.096;20.014;2022-12-18T09:50:13;101049.69;;;-0.01;61.85
33286;BME280;19656;50.096;20.014;2022-12-18T09:55:26;101052.05;;;0.08;60.47
33286;BME280;19656;50.096;20.014;2022-12-18T10:00:39;101048.16;;;0.04;60.04
33286;BME280;19656;50.096;20.014;2022-12-18T10:06:11;101049.70;;;0.01;60.02
33286;BME280;19656;50.096;20.014;2022-12-18T10:23:00;101047.81;;;0.16;59.83
33286;BME280;19656;50.096;20.014;2022-12-18T10:28:30;101055.61;;;0.25;59.77
33286;BME280;19656;50.096;20.014;2022-12-18T10:33:34;101050.26;;;0.46;59.49
33286;BME280;19656;50.096;20.014;2022-12-18T10:38:53;101040.29;;;0.59;58.96
33286;BME280;19656;50.096;20.014;2022-12-18T10:49:27;101033.53;;;0.65;58.36
33286;BME280;19656;50.096;20.014;2022-12-18T10:55:02;101029.56;;;0.70;57.95
33286;BME280;19656;50.096;20.014;2022-12-18T11:00:22;101028.06;;;0.77;57.41
33286;BME280;19656;50.096;20.014;2022-12-18T11:06:25;101022.67;;;0.79;56.36
33286;BME280;19656;50.096;20.014;2022-12-18T11:11:22;101018.45;;;0.77;57.50
33286;BME280;19656;50.096;20.014;2022-12-18T11:16:36;101013.10;;;0.82;57.12
33286;BME280;19656;50.096;20.014;2022-12-18T11:22:30;101008.04;;;0.66;55.76
33286;BME280;19656;50.096;20.014;2022-12-18T11:27:35;101003.86;;;0.50;55.82
33286;BME280;19656;50.096;20.014;2022-12-18T11:32:49;100997.52;;;0.45;55.88
33286;BME280;19656;50.096;20.014;2022-12-18T11:38:01;101002.56;;;0.41;55.84
33286;BME280;19656;50.096;20.014;2022-12-18T11:43:14;101004.82;;;0.42;55.75
33286;BME280;19656;50.096;20.014;2022-12-18T11:48:52;101009.77;;;0.48;55.79
33286;BME280;19656;50.096;20.014;2022-12-18T11:54:01;101013.41;;;0.62;57.35
33286;BME280;19656;50.096;20.014;2022-12-18T12:05:13;101013.89;;;0.75;55.25
33286;BME280;19656;50.096;20.014;2022-12-18T12:16:03;101010.23;;;0.75;55.58
33286;BME280;19656;50.096;20.014;2022-12-18T12:21:32;101008.27;;;0.71;55.30
33286;BME280;19656;50.096;20.014;2022-12-18T12:27:07;101006.70;;;0.56;55.50
33286;BME280;19656;50.096;20.014;2022-12-18T12:38:10;101028.21;;;0.42;55.97
33286;BME280;19656;50.096;20.014;2022-12-18T12:49:11;101049.30;;;0.53;57.29
33286;BME280;19656;50.096;20.014;2022-12-18T12:54:24;101053.48;;;0.69;58.15
33286;BME280;19656;50.096;20.014;2022-12-18T13:15:27;101077.55;;;0.36;56.24
33286;BME280;19656;50.096;20.014;2022-12-18T13:20:40;101078.14;;;0.27;56.19
33286;BME280;19656;50.096;20.014;2022-12-18T13:25:58;101083.04;;;0.15;56.37
33286;BME280;19656;50.096;20.014;2022-12-18T13:31:03;101085.91;;;0.20;57.97
33286;BME280;19656;50.096;20.014;2022-12-18T13:36:26;101096.84;;;0.15;56.50
33286;BME280;19656;50.096;20.014;2022-12-18T13:41:32;101099.65;;;0.04;56.42
33286;BME280;19656;50.096;20.014;2022-12-18T13:46:44;101104.73;;;-0.07;56.36
33286;BME280;19656;50.096;20.014;2022-12-18T13:51:55;101109.10;;;-0.18;56.50
33286;BME280;19656;50.096;20.014;2022-12-18T13:57:03;101116.52;;;-0.33;56.65
33286;BME280;19656;50.096;20.014;2022-12-18T14:02:14;101122.52;;;-0.41;56.82
33286;BME280;19656;50.096;20.014;2022-12-18T14:07:21;101120.14;;;-0.47;56.76
33286;BME280;19656;50.096;20.014;2022-12-18T14:12:30;101131.13;;;-0.58;56.76
33286;BME280;19656;50.096;20.014;2022-12-18T14:18:02;101135.83;;;-0.69;57.00
33286;BME280;19656;50.096;20.014;2022-12-18T14:23:38;101144.17;;;-0.80;56.82
33286;BME280;19656;50.096;20.014;2022-12-18T14:28:44;101146.80;;;-0.88;57.79
33286;BME280;19656;50.096;20.014;2022-12-18T14:40:40;101151.16;;;-1.24;57.20
33286;BME280;19656;50.096;20.014;2022-12-18T14:45:45;101158.14;;;-1.41;57.32
33286;BME280;19656;50.096;20.014;2022-12-18T14:51:02;101169.55;;;-1.53;57.48
33286;BME280;19656;50.096;20.014;2022-12-18T14:56:30;101168.14;;;-1.70;57.65
33286;BME280;19656;50.096;20.014;2022-12-18T15:01:39;101174.94;;;-1.84;57.75
33286;BME280;19656;50.096;20.014;2022-12-18T15:06:48;101164.30;;;-2.01;57.92
33286;BME280;19656;50.096;20.014;2022-12-18T15:11:58;101162.42;;;-2.14;58.00
33286;BME280;19656;50.096;20.014;2022-12-18T15:17:18;101170.61;;;-2.28;58.27
33286;BME280;19656;50.096;20.014;2022-12-18T15:22:34;101181.48;;;-2.39;58.41
33286;BME280;19656;50.096;20.014;2022-12-18T15:27:48;101183.41;;;-2.51;58.50
33286;BME280;19656;50.096;20.014;2022-12-18T15:33:24;101181.95;;;-2.60;58.74
33286;BME280;19656;50.096;20.014;2022-12-18T15:38:46;101191.92;;;-2.72;58.71
33286;BME280;19656;50.096;20.014;2022-12-18T15:43:59;101202.60;;;-2.81;58.99
33286;BME280;19656;50.096;20.014;2022-12-18T15:49:16;101209.59;;;-2.92;59.01
33286;BME280;19656;50.096;20.014;2022-12-18T15:54:29;101212.27;;;-3.03;58.87
33286;BME280;19656;50.096;20.014;2022-12-18T15:59:58;101215.77;;;-3.13;59.14
33286;BME280;19656;50.096;20.014;2022-12-18T16:05:02;101220.37;;;-3.22;59.09
33286;BME280;19656;50.096;20.014;2022-12-18T16:10:06;101221.53;;;-3.30;59.35
33286;BME280;19656;50.096;20.014;2022-12-18T16:15:14;101225.04;;;-3.36;60.20
33286;BME280;19656;50.096;20.014;2022-12-18T16:20:26;101237.99;;;-3.37;61.31
33286;BME280;19656;50.096;20.014;2022-12-18T16:25:50;101235.10;;;-3.36;60.13
33286;BME280;19656;50.096;20.014;2022-12-18T16:31:12;101237.81;;;-3.55;59.36
33286;BME280;19656;50.096;20.014;2022-12-18T16:36:26;101242.83;;;-3.67;59.46
33286;BME280;19656;50.096;20.014;2022-12-18T16:41:32;101252.92;;;-3.76;59.46
33286;BME280;19656;50.096;20.014;2022-12-18T16:46:40;101253.65;;;-3.86;59.34
33286;BME280;19656;50.096;20.014;2022-12-18T16:52:48;101263.18;;;-3.97;59.58
33286;BME280;19656;50.096;20.014;2022-12-18T16:58:01;101270.95;;;-4.09;59.83
33286;BME280;19656;50.096;20.014;2022-12-18T17:03:08;101260.58;;;-4.18;61.85
33286;BME280;19656;50.096;20.014;2022-12-18T17:08:18;101262.95;;;-4.15;60.97
33286;BME280;19656;50.096;20.014;2022-12-18T17:13:26;101265.80;;;-4.12;60.52
33286;BME280;19656;50.096;20.014;2022-12-18T17:19:13;101270.52;;;-4.32;58.89
33286;BME280;19656;50.096;20.014;2022-12-18T17:24:29;101263.81;;;-4.45;59.59
33286;BME280;19656;50.096;20.014;2022-12-18T17:29:42;101252.95;;;-4.39;59.91
33286;BME280;19656;50.096;20.014;2022-12-18T17:34:51;101257.64;;;-4.64;57.43
33286;BME280;19656;50.096;20.014;2022-12-18T17:39:55;101248.38;;;-4.95;56.82
33286;BME280;19656;50.096;20.014;2022-12-18T17:45:03;101239.95;;;-5.17;56.81
33286;BME280;19656;50.096;20.014;2022-12-18T17:50:11;101241.75;;;-5.34;56.93
33286;BME280;19656;50.096;20.014;2022-12-18T17:55:17;101239.41;;;-5.50;57.24
33286;BME280;19656;50.096;20.014;2022-12-18T18:00:21;101232.63;;;-5.60;57.38
33286;BME280;19656;50.096;20.014;2022-12-18T18:05:29;101229.60;;;-5.72;57.51
33286;BME280;19656;50.096;20.014;2022-12-18T18:10:36;101229.58;;;-5.77;57.73
33286;BME280;19656;50.096;20.014;2022-12-18T18:15:40;101236.33;;;-5.80;58.48
33286;BME280;19656;50.096;20.014;2022-12-18T18:20:48;101237.92;;;-5.80;58.98
33286;BME280;19656;50.096;20.014;2022-12-18T18:26:05;101241.19;;;-5.76;59.42
33286;BME280;19656;50.096;20.014;2022-12-18T18:31:13;101253.70;;;-5.70;60.10
33286;BME280;19656;50.096;20.014;2022-12-18T18:36:22;101264.23;;;-5.61;60.64
33286;BME280;19656;50.096;20.014;2022-12-18T18:41:36;101274.45;;;-5.52;60.90
33286;BME280;19656;50.096;20.014;2022-12-18T18:46:41;101258.89;;;-5.33;64.22
33286;BME280;19656;50.096;20.014;2022-12-18T18:51:50;101259.59;;;-4.96;64.16
33286;BME280;19656;50.096;20.014;2022-12-18T18:56:58;101264.64;;;-5.05;60.95
33286;BME280;19656;50.096;20.014;2022-12-18T19:02:30;101258.46;;;-5.12;60.68
33286;BME280;19656;50.096;20.014;2022-12-18T19:07:35;101253.39;;;-5.19;60.10
33286;BME280;19656;50.096;20.014;2022-12-18T19:12:38;101255.05;;;-5.30;59.98
33286;BME280;19656;50.096;20.014;2022-12-18T19:18:01;101253.79;;;-5.36;60.43
33286;BME280;19656;50.096;20.014;2022-12-18T19:23:04;101252.92;;;-5.40;60.38
33286;BME280;19656;50.096;20.014;2022-12-18T19:28:08;101260.36;;;-5.49;60.10
33286;BME280;19656;50.096;20.014;2022-12-18T19:33:25;101273.15;;;-5.54;60.36
33286;BME280;19656;50.096;20.014;2022-12-18T19:38:47;101268.46;;;-5.50;60.92
33286;BME280;19656;50.096;20.014;2022-12-18T19:43:55;101280.08;;;-5.50;61.06
33286;BME280;19656;50.096;20.014;2022-12-18T19:49:01;101285.58;;;-5.50;61.15
33286;BME280;19656;50.096;20.014;2022-12-18T19:54:05;101289.86;;;-5.47;61.49
33286;BME280;19656;50.096;20.014;2022-12-18T19:59:08;101293.75;;;-5.40;61.62
33286;BME280;19656;50.096;20.014;2022-12-18T20:04:15;101303.38;;;-5.37;61.47
33286;BME280;19656;50.096;20.014;2022-12-18T20:09:22;101298.64;;;-5.35;61.60
33286;BME280;19656;50.096;20.014;2022-12-18T20:14:26;101297.68;;;-5.33;61.60
33286;BME280;19656;50.096;20.014;2022-12-18T20:19:29;101287.59;;;-5.06;65.62
33286;BME280;19656;50.096;20.014;2022-12-18T20:24:36;101286.99;;;-4.81;62.92
33286;BME280;19656;50.096;20.014;2022-12-18T20:29:39;101303.91;;;-4.96;61.20
33286;BME280;19656;50.096;20.014;2022-12-18T20:34:42;101309.70;;;-5.08;61.05
33286;BME280;19656;50.096;20.014;2022-12-18T20:39:45;101310.49;;;-5.19;60.92
33286;BME280;19656;50.096;20.014;2022-12-18T20:44:49;101310.02;;;-5.27;60.91
33286;BME280;19656;50.096;20.014;2022-12-18T20:49:52;101300.27;;;-5.37;60.91
33286;BME280;19656;50.096;20.014;2022-12-18T20:54:55;101291.23;;;-5.38;61.47
33286;BME280;19656;50.096;20.014;2022-12-18T21:00:08;101288.23;;;-5.35;61.78
33286;BME280;19656;50.096;20.014;2022-12-18T21:05:14;101277.06;;;-5.33;61.57
33286;BME280;19656;50.096;20.014;2022-12-18T21:10:24;101270.61;;;-5.34;61.45
33286;BME280;19656;50.096;20.014;2022-12-18T21:15:29;101259.84;;;-5.36;61.04
33286;BME280;19656;50.096;20.014;2022-12-18T21:20:34;101259.73;;;-5.43;60.61
33286;BME280;19656;50.096;20.014;2022-12-18T21:25:39;101266.13;;;-5.53;60.62
33286;BME280;19656;50.096;20.014;2022-12-18T21:30:43;101266.81;;;-5.61;60.37
33286;BME280;19656;50.096;20.014;2022-12-18T21:35:51;101257.08;;;-5.72;60.32
33286;BME280;19656;50.096;20.014;2022-12-18T21:41:08;101246.95;;;-5.79;60.49
33286;BME280;19656;50.096;20.014;2022-12-18T21:46:37;101237.64;;;-5.87;60.36
33286;BME280;19656;50.096;20.014;2022-12-18T21:51:44;101233.21;;;-5.89;60.89
33286;BME280;19656;50.096;20.014;2022-12-18T22:02:11;101233.88;;;-5.90;60.55
33286;BME280;19656;50.096;20.014;2022-12-18T22:07:18;101234.45;;;-5.94;60.62
33286;BME280;19656;50.096;20.014;2022-12-18T22:12:25;101230.52;;;-5.97;60.62
33286;BME280;19656;50.096;20.014;2022-12-18T22:17:51;101239.80;;;-6.03;60.50
33286;BME280;19656;50.096;20.014;2022-12-18T22:24:13;101244.04;;;-6.13;60.44
33286;BME280;19656;50.096;20.014;2022-12-18T22:29:32;101251.04;;;-6.15;60.82
33286;BME280;19656;50.096;20.014;2022-12-18T22:35:03;101240.61;;;-6.16;61.15
33286;BME280;19656;50.096;20.014;2022-12-18T22:40:49;101234.05;;;-6.21;60.81
33286;BME280;19656;50.096;20.014;2022-12-18T22:45:59;101222.50;;;-6.25;60.94
33286;BME280;19656;50.096;20.014;2022-12-18T22:51:16;101221.95;;;-6.25;60.70
33286;BME280;19656;50.096;20.014;2022-12-18T22:57:00;101226.64;;;-6.16;61.03
33286;BME280;19656;50.096;20.014;2022-12-18T23:02:08;101219.32;;;-6.05;60.85
33286;BME280;19656;50.096;20.014;2022-12-18T23:07:45;101211.98;;;-5.89;61.29
33286;BME280;19656;50.096;20.014;2022-12-18T23:12:55;101214.25;;;-5.79;61.24
33286;BME280;19656;50.096;20.014;2022-12-18T23:18:32;101210.67;;;-5.78;60.59
33286;BME280;19656;50.096;20.014;2022-12-18T23:23:54;101211.39;;;-5.86;60.55
33286;BME280;19656;50.096;20.014;2022-12-18T23:29:14;101212.69;;;-5.88;60.94
33286;BME280;19656;50.096;20.014;2022-12-18T23:34:33;101210.64;;;-5.88;61.12
33286;BME280;19656;50.096;20.014;2022-12-18T23:39:44;101217.41;;;-5.87;61.33
33286;BME280;19656;50.096;20.014;2022-12-18T23:45:00;101215.13;;;-5.92;61.00
33286;BME280;19656;50.096;20.014;2022-12-18T23:50:26;101218.75;;;-6.02;60.67
33286;BME280;19656;50.096;20.014;2022-12-18T23:56:02;101218.95;;;-6.10;60.78
